sensor_id;sensor_type;location;lat;lon;timestamp;pressure;altitude;pressure_sealevel;temperature
69420;BMP280;71621;52.030;113.516;2024-03-17T00:01:33;94128.78;;;-6.64
69420;BMP280;71621;52.030;113.516;2024-03-17T00:04:35;94133.78;;;-6.53
69420;BMP280;71621;52.030;113.516;2024-03-17T00:07:38;94133.59;;;-6.42
69420;BMP280;71621;52.030;113.516;2024-03-17T00:10:41;94131.03;;;-6.21
69420;BMP280;71621;52.030;113.516;2024-03-17T00:13:43;94129.81;;;-6.06
69420;BMP280;71621;52.030;113.516;2024-03-17T00:16:45;94128.06;;;-5.91
69420;BMP280;71621;52.030;113.516;2024-03-17T00:19:47;94136.63;;;-5.69
69420;BMP280;71621;52.030;113.516;2024-03-17T00:22:50;94136.75;;;-5.54
69420;BMP280;71621;52.030;113.516;2024-03-17T00:25:55;94134.97;;;-5.38
69420;BMP280;71621;52.030;113.516;2024-03-17T00:28:57;94141.69;;;-5.22
69420;BMP280;71621;52.030;113.516;2024-03-17T00:31:59;94135.03;;;-5.10
69420;BMP280;71621;52.030;113.516;2024-03-17T00:35:02;94136.97;;;-5.02
69420;BMP280;71621;52.030;113.516;2024-03-17T00:38:04;94138.34;;;-5.01
69420;BMP280;71621;52.030;113.516;2024-03-17T00:41:11;94127.50;;;-5.13
69420;BMP280;71621;52.030;113.516;2024-03-17T00:44:13;94124.19;;;-5.14
69420;BMP280;71621;52.030;113.516;2024-03-17T00:47:16;94124.31;;;-4.98
69420;BMP280;71621;52.030;113.516;2024-03-17T00:50:18;94114.47;;;-4.92
69420;BMP280;71621;52.030;113.516;2024-03-17T00:53:21;94121.03;;;-4.99
69420;BMP280;71621;52.030;113.516;2024-03-17T00:56:23;94120.97;;;-5.07
69420;BMP280;71621;52.030;113.516;2024-03-17T00:59:25;94107.78;;;-5.09
69420;BMP280;71621;52.030;113.516;2024-03-17T01:02:27;94120.31;;;-4.99
69420;BMP280;71621;52.030;113.516;2024-03-17T01:05:30;94114.22;;;-5.02
69420;BMP280;71621;52.030;113.516;2024-03-17T01:08:32;94107.28;;;-4.99
69420;BMP280;71621;52.030;113.516;2024-03-17T01:11:35;94109.91;;;-4.99
69420;BMP280;71621;52.030;113.516;2024-03-17T01:14:37;94110.56;;;-5.07
69420;BMP280;71621;52.030;113.516;2024-03-17T01:17:39;94100.47;;;-5.02
69420;BMP280;71621;52.030;113.516;2024-03-17T01:20:42;94092.66;;;-5.02
69420;BMP280;71621;52.030;113.516;2024-03-17T01:23:45;94098.63;;;-4.94
69420;BMP280;71621;52.030;113.516;2024-03-17T01:26:47;94095.22;;;-4.82
69420;BMP280;71621;52.030;113.516;2024-03-17T01:29:49;94094.13;;;-4.58
69420;BMP280;71621;52.030;113.516;2024-03-17T01:32:52;94087.34;;;-4.53
69420;BMP280;71621;52.030;113.516;2024-03-17T01:35:54;94098.13;;;-4.49
69420;BMP280;71621;52.030;113.516;2024-03-17T01:38:56;94087.22;;;-4.40
69420;BMP280;71621;52.030;113.516;2024-03-17T01:41:59;94091.09;;;-4.26
69420;BMP280;71621;52.030;113.516;2024-03-17T01:45:01;94085.00;;;-4.20
69420;BMP280;71621;52.030;113.516;2024-03-17T01:48:04;94084.34;;;-4.13
69420;BMP280;71621;52.030;113.516;2024-03-17T01:51:11;94091.09;;;-4.18
69420;BMP280;71621;52.030;113.516;2024-03-17T01:54:16;94088.53;;;-4.10
69420;BMP280;71621;52.030;113.516;2024-03-17T01:57:19;94078.56;;;-4.19
69420;BMP280;71621;52.030;113.516;2024-03-17T02:00:21;94071.28;;;-4.21
69420;BMP280;71621;52.030;113.516;2024-03-17T02:03:24;94070.25;;;-4.10
69420;BMP280;71621;52.030;113.516;2024-03-17T02:06:27;94070.44;;;-4.01
69420;BMP280;71621;52.030;113.516;2024-03-17T02:09:29;94061.75;;;-4.03
69420;BMP280;71621;52.030;113.516;2024-03-17T02:12:32;94060.34;;;-3.97
69420;BMP280;71621;52.030;113.516;2024-03-17T02:15:34;94058.13;;;-3.92
69420;BMP280;71621;52.030;113.516;2024-03-17T02:18:36;94054.66;;;-3.95
69420;BMP280;71621;52.030;113.516;2024-03-17T02:21:39;94045.91;;;-3.98
69420;BMP280;71621;52.030;113.516;2024-03-17T02:24:41;94051.69;;;-3.91
69420;BMP280;71621;52.030;113.516;2024-03-17T02:27:43;94037.56;;;-3.81
69420;BMP280;71621;52.030;113.516;2024-03-17T02:30:46;94040.50;;;-3.77
69420;BMP280;71621;52.030;113.516;2024-03-17T02:33:49;94035.31;;;-3.92
69420;BMP280;71621;52.030;113.516;2024-03-17T02:36:50;94032.84;;;-3.98
69420;BMP280;71621;52.030;113.516;2024-03-17T02:39:53;94024.69;;;-3.86
69420;BMP280;71621;52.030;113.516;2024-03-17T02:42:56;94018.41;;;-3.68
69420;BMP280;71621;52.030;113.516;2024-03-17T02:45:58;94019.44;;;-3.41
69420;BMP280;71621;52.030;113.516;2024-03-17T02:49:01;94014.53;;;-3.36
69420;BMP280;71621;52.030;113.516;2024-03-17T02:52:04;94013.53;;;-3.41
69420;BMP280;71621;52.030;113.516;2024-03-17T02:55:07;94006.69;;;-3.36
69420;BMP280;71621;52.030;113.516;2024-03-17T02:58:10;93993.78;;;-3.27
69420;BMP280;71621;52.030;113.516;2024-03-17T03:01:13;93991.16;;;-3.19
69420;BMP280;71621;52.030;113.516;2024-03-17T03:04:17;93997.53;;;-3.05
69420;BMP280;71621;52.030;113.516;2024-03-17T03:07:19;93987.78;;;-3.04
69420;BMP280;71621;52.030;113.516;2024-03-17T03:10:22;93971.47;;;-3.13
69420;BMP280;71621;52.030;113.516;2024-03-17T03:13:24;93975.22;;;-2.98
69420;BMP280;71621;52.030;113.516;2024-03-17T03:16:26;93975.38;;;-2.89
69420;BMP280;71621;52.030;113.516;2024-03-17T03:19:28;93968.75;;;-2.97
69420;BMP280;71621;52.030;113.516;2024-03-17T03:22:32;93959.19;;;-3.02
69420;BMP280;71621;52.030;113.516;2024-03-17T03:25:34;93946.63;;;-2.96
69420;BMP280;71621;52.030;113.516;2024-03-17T03:28:36;93941.22;;;-2.91
69420;BMP280;71621;52.030;113.516;2024-03-17T03:31:38;93932.88;;;-2.72
69420;BMP280;71621;52.030;113.516;2024-03-17T03:34:41;93931.38;;;-2.50
69420;BMP280;71621;52.030;113.516;2024-03-17T03:37:43;93920.59;;;-2.29
69420;BMP280;71621;52.030;113.516;2024-03-17T03:40:46;93920.25;;;-2.08
69420;BMP280;71621;52.030;113.516;2024-03-17T03:43:49;93918.16;;;-1.92
69420;BMP280;71621;52.030;113.516;2024-03-17T03:46:52;93918.84;;;-1.92
69420;BMP280;71621;52.030;113.516;2024-03-17T03:49:58;93919.59;;;-1.99
69420;BMP280;71621;52.030;113.516;2024-03-17T03:53:01;93916.59;;;-2.13
69420;BMP280;71621;52.030;113.516;2024-03-17T03:56:04;93912.13;;;-2.20
69420;BMP280;71621;52.030;113.516;2024-03-17T03:59:12;93906.72;;;-2.22
69420;BMP280;71621;52.030;113.516;2024-03-17T04:02:15;93913.34;;;-2.21
69420;BMP280;71621;52.030;113.516;2024-03-17T04:05:19;93912.66;;;-2.21
69420;BMP280;71621;52.030;113.516;2024-03-17T04:08:21;93901.50;;;-2.22
69420;BMP280;71621;52.030;113.516;2024-03-17T04:11:26;93883.78;;;-2.14
69420;BMP280;71621;52.030;113.516;2024-03-17T04:14:28;93884.03;;;-2.02
69420;BMP280;71621;52.030;113.516;2024-03-17T04:17:32;93891.56;;;-1.89
69420;BMP280;71621;52.030;113.516;2024-03-17T04:20:35;93883.97;;;-1.94
69420;BMP280;71621;52.030;113.516;2024-03-17T04:23:38;93885.19;;;-2.13
69420;BMP280;71621;52.030;113.516;2024-03-17T04:26:40;93874.41;;;-2.17
69420;BMP280;71621;52.030;113.516;2024-03-17T04:29:42;93871.25;;;-2.15
69420;BMP280;71621;52.030;113.516;2024-03-17T04:32:44;93868.56;;;-2.08
69420;BMP280;71621;52.030;113.516;2024-03-17T04:35:47;93855.00;;;-1.96
69420;BMP280;71621;52.030;113.516;2024-03-17T04:38:49;93851.00;;;-1.80
69420;BMP280;71621;52.030;113.516;2024-03-17T04:41:52;93838.56;;;-1.62
69420;BMP280;71621;52.030;113.516;2024-03-17T04:44:54;93850.47;;;-1.52
69420;BMP280;71621;52.030;113.516;2024-03-17T04:47:57;93845.47;;;-1.57
69420;BMP280;71621;52.030;113.516;2024-03-17T04:50:59;93845.72;;;-1.63
69420;BMP280;71621;52.030;113.516;2024-03-17T04:54:02;93834.94;;;-1.67
69420;BMP280;71621;52.030;113.516;2024-03-17T04:57:09;93823.38;;;-1.64
69420;BMP280;71621;52.030;113.516;2024-03-17T05:00:12;93831.72;;;-1.48
69420;BMP280;71621;52.030;113.516;2024-03-17T05:03:15;93816.88;;;-1.36
69420;BMP280;71621;52.030;113.516;2024-03-17T05:06:18;93815.19;;;-1.24
69420;BMP280;71621;52.030;113.516;2024-03-17T05:09:20;93815.91;;;-1.13
69420;BMP280;71621;52.030;113.516;2024-03-17T05:12:22;93800.59;;;-1.07
69420;BMP280;71621;52.030;113.516;2024-03-17T05:15:24;93802.69;;;-1.06
69420;BMP280;71621;52.030;113.516;2024-03-17T05:18:27;93799.09;;;-1.10
69420;BMP280;71621;52.030;113.516;2024-03-17T05:21:29;93791.09;;;-1.03
69420;BMP280;71621;52.030;113.516;2024-03-17T05:24:32;93782.16;;;-0.90
69420;BMP280;71621;52.030;113.516;2024-03-17T05:27:34;93780.50;;;-0.86
69420;BMP280;71621;52.030;113.516;2024-03-17T05:30:36;93768.22;;;-0.83
69420;BMP280;71621;52.030;113.516;2024-03-17T05:33:38;93780.38;;;-0.78
69420;BMP280;71621;52.030;113.516;2024-03-17T05:36:41;93776.09;;;-0.73
69420;BMP280;71621;52.030;113.516;2024-03-17T05:39:43;93769.19;;;-0.88
69420;BMP280;71621;52.030;113.516;2024-03-17T05:42:45;93762.00;;;-0.78
69420;BMP280;71621;52.030;113.516;2024-03-17T05:45:47;93747.94;;;-0.63
69420;BMP280;71621;52.030;113.516;2024-03-17T05:48:50;93742.56;;;-0.55
69420;BMP280;71621;52.030;113.516;2024-03-17T05:51:52;93733.44;;;-0.45
69420;BMP280;71621;52.030;113.516;2024-03-17T05:54:55;93747.13;;;-0.46
69420;BMP280;71621;52.030;113.516;2024-03-17T05:57:57;93750.31;;;-0.48
69420;BMP280;71621;52.030;113.516;2024-03-17T06:01:03;93737.72;;;-0.49
69420;BMP280;71621;52.030;113.516;2024-03-17T06:04:06;93730.69;;;-0.57
69420;BMP280;71621;52.030;113.516;2024-03-17T06:07:08;93722.94;;;-0.54
69420;BMP280;71621;52.030;113.516;2024-03-17T06:10:10;93733.84;;;-0.48
69420;BMP280;71621;52.030;113.516;2024-03-17T06:13:13;93729.31;;;-0.28
69420;BMP280;71621;52.030;113.516;2024-03-17T06:16:18;93717.25;;;-0.12
69420;BMP280;71621;52.030;113.516;2024-03-17T06:19:22;93725.00;;;-0.24
69420;BMP280;71621;52.030;113.516;2024-03-17T06:22:24;93727.66;;;-0.24
69420;BMP280;71621;52.030;113.516;2024-03-17T06:25:26;93710.63;;;-0.33
69420;BMP280;71621;52.030;113.516;2024-03-17T06:28:29;93718.69;;;-0.31
69420;BMP280;71621;52.030;113.516;2024-03-17T06:31:32;93711.75;;;-0.36
69420;BMP280;71621;52.030;113.516;2024-03-17T06:34:34;93699.84;;;-0.17
69420;BMP280;71621;52.030;113.516;2024-03-17T06:37:36;93717.66;;;0.04
69420;BMP280;71621;52.030;113.516;2024-03-17T06:40:39;93714.72;;;0.09
69420;BMP280;71621;52.030;113.516;2024-03-17T06:43:41;93707.00;;;0.02
69420;BMP280;71621;52.030;113.516;2024-03-17T06:46:45;93690.22;;;0.16
69420;BMP280;71621;52.030;113.516;2024-03-17T06:49:48;93706.03;;;0.38
69420;BMP280;71621;52.030;113.516;2024-03-17T06:52:51;93701.41;;;0.26
69420;BMP280;71621;52.030;113.516;2024-03-17T06:55:57;93685.66;;;0.17
69420;BMP280;71621;52.030;113.516;2024-03-17T06:58:59;93704.75;;;0.17
69420;BMP280;71621;52.030;113.516;2024-03-17T07:02:01;93692.25;;;0.27
69420;BMP280;71621;52.030;113.516;2024-03-17T07:05:04;93690.34;;;0.18
69420;BMP280;71621;52.030;113.516;2024-03-17T07:08:06;93680.16;;;0.13
69420;BMP280;71621;52.030;113.516;2024-03-17T07:11:08;93678.22;;;0.13
69420;BMP280;71621;52.030;113.516;2024-03-17T07:14:11;93669.34;;;0.18
69420;BMP280;71621;52.030;113.516;2024-03-17T07:17:13;93677.69;;;0.05
69420;BMP280;71621;52.030;113.516;2024-03-17T07:20:15;93677.94;;;0.09
69420;BMP280;71621;52.030;113.516;2024-03-17T07:23:18;93678.31;;;0.25
69420;BMP280;71621;52.030;113.516;2024-03-17T07:26:20;93664.78;;;0.40
69420;BMP280;71621;52.030;113.516;2024-03-17T07:29:22;93664.38;;;0.44
69420;BMP280;71621;52.030;113.516;2024-03-17T07:32:24;93657.59;;;0.41
69420;BMP280;71621;52.030;113.516;2024-03-17T07:35:26;93666.03;;;0.39
69420;BMP280;71621;52.030;113.516;2024-03-17T07:38:30;93656.22;;;0.40
69420;BMP280;71621;52.030;113.516;2024-03-17T07:41:32;93644.28;;;0.48
69420;BMP280;71621;52.030;113.516;2024-03-17T07:44:34;93651.66;;;0.62
69420;BMP280;71621;52.030;113.516;2024-03-17T07:47:36;93657.19;;;0.66
69420;BMP280;71621;52.030;113.516;2024-03-17T07:50:39;93651.94;;;0.66
69420;BMP280;71621;52.030;113.516;2024-03-17T07:53:42;93635.59;;;0.67
69420;BMP280;71621;52.030;113.516;2024-03-17T07:56:46;93654.56;;;0.66
69420;BMP280;71621;52.030;113.516;2024-03-17T07:59:51;93654.50;;;0.54
69420;BMP280;71621;52.030;113.516;2024-03-17T08:02:54;93641.97;;;0.43
69420;BMP280;71621;52.030;113.516;2024-03-17T08:05:56;93651.22;;;0.44
69420;BMP280;71621;52.030;113.516;2024-03-17T08:08:58;93643.06;;;0.40
69420;BMP280;71621;52.030;113.516;2024-03-17T08:12:00;93636.75;;;0.33
69420;BMP280;71621;52.030;113.516;2024-03-17T08:15:04;93637.88;;;0.30
69420;BMP280;71621;52.030;113.516;2024-03-17T08:18:06;93640.53;;;0.20
69420;BMP280;71621;52.030;113.516;2024-03-17T08:21:09;93640.63;;;0.11
69420;BMP280;71621;52.030;113.516;2024-03-17T08:24:11;93633.53;;;0.13
69420;BMP280;71621;52.030;113.516;2024-03-17T08:27:15;93631.56;;;0.23
69420;BMP280;71621;52.030;113.516;2024-03-17T08:30:17;93629.78;;;0.38
69420;BMP280;71621;52.030;113.516;2024-03-17T08:33:21;93619.91;;;0.48
69420;BMP280;71621;52.030;113.516;2024-03-17T08:36:24;93614.78;;;0.50
69420;BMP280;71621;52.030;113.516;2024-03-17T08:39:27;93623.63;;;0.54
69420;BMP280;71621;52.030;113.516;2024-03-17T08:42:29;93615.78;;;0.45
69420;BMP280;71621;52.030;113.516;2024-03-17T08:45:32;93612.84;;;0.50
69420;BMP280;71621;52.030;113.516;2024-03-17T08:48:35;93622.75;;;0.62
69420;BMP280;71621;52.030;113.516;2024-03-17T08:51:38;93614.59;;;0.57
69420;BMP280;71621;52.030;113.516;2024-03-17T08:54:40;93607.47;;;0.48
69420;BMP280;71621;52.030;113.516;2024-03-17T08:57:43;93613.00;;;0.52
69420;BMP280;71621;52.030;113.516;2024-03-17T09:00:45;93612.78;;;0.60
69420;BMP280;71621;52.030;113.516;2024-03-17T09:03:47;93624.69;;;0.61
69420;BMP280;71621;52.030;113.516;2024-03-17T09:06:51;93625.97;;;0.50
69420;BMP280;71621;52.030;113.516;2024-03-17T09:09:56;93625.44;;;0.31
69420;BMP280;71621;52.030;113.516;2024-03-17T09:12:58;93619.53;;;0.20
69420;BMP280;71621;52.030;113.516;2024-03-17T09:16:01;93619.66;;;0.22
69420;BMP280;71621;52.030;113.516;2024-03-17T09:19:03;93617.66;;;0.33
69420;BMP280;71621;52.030;113.516;2024-03-17T09:22:06;93620.53;;;0.37
69420;BMP280;71621;52.030;113.516;2024-03-17T09:25:09;93622.34;;;0.34
69420;BMP280;71621;52.030;113.516;2024-03-17T09:28:11;93620.94;;;0.21
69420;BMP280;71621;52.030;113.516;2024-03-17T09:31:13;93624.13;;;0.10
69420;BMP280;71621;52.030;113.516;2024-03-17T09:34:15;93624.19;;;0.01
69420;BMP280;71621;52.030;113.516;2024-03-17T09:37:17;93624.72;;;-0.01
69420;BMP280;71621;52.030;113.516;2024-03-17T09:40:20;93620.88;;;0.00
69420;BMP280;71621;52.030;113.516;2024-03-17T09:43:24;93618.38;;;0.02
69420;BMP280;71621;52.030;113.516;2024-03-17T09:46:27;93627.50;;;0.01
69420;BMP280;71621;52.030;113.516;2024-03-17T09:49:30;93629.44;;;0.01
69420;BMP280;71621;52.030;113.516;2024-03-17T09:52:33;93633.34;;;-0.10
69420;BMP280;71621;52.030;113.516;2024-03-17T09:55:36;93632.13;;;-0.19
69420;BMP280;71621;52.030;113.516;2024-03-17T09:58:38;93626.19;;;-0.19
69420;BMP280;71621;52.030;113.516;2024-03-17T10:01:40;93631.16;;;-0.23
69420;BMP280;71621;52.030;113.516;2024-03-17T10:04:44;93635.72;;;-0.34
69420;BMP280;71621;52.030;113.516;2024-03-17T10:07:47;93635.34;;;-0.40
69420;BMP280;71621;52.030;113.516;2024-03-17T10:10:53;93624.56;;;-0.44
69420;BMP280;71621;52.030;113.516;2024-03-17T10:14:08;93637.56;;;-0.46
69420;BMP280;71621;52.030;113.516;2024-03-17T10:17:11;93635.75;;;-0.53
69420;BMP280;71621;52.030;113.516;2024-03-17T10:20:18;93628.75;;;-0.60
69420;BMP280;71621;52.030;113.516;2024-03-17T10:23:20;93629.31;;;-0.62
69420;BMP280;71621;52.030;113.516;2024-03-17T10:26:23;93643.81;;;-0.61
69420;BMP280;71621;52.030;113.516;2024-03-17T10:29:29;93637.19;;;-0.62
69420;BMP280;71621;52.030;113.516;2024-03-17T10:32:32;93637.75;;;-0.73
69420;BMP280;71621;52.030;113.516;2024-03-17T10:35:36;93643.00;;;-0.73
69420;BMP280;71621;52.030;113.516;2024-03-17T10:38:51;93641.44;;;-0.66
69420;BMP280;71621;52.030;113.516;2024-03-17T10:41:59;93642.28;;;-0.64
69420;BMP280;71621;52.030;113.516;2024-03-17T10:45:06;93646.13;;;-0.65
69420;BMP280;71621;52.030;113.516;2024-03-17T10:48:15;93649.31;;;-0.66
69420;BMP280;71621;52.030;113.516;2024-03-17T10:51:22;93651.69;;;-0.70
69420;BMP280;71621;52.030;113.516;2024-03-17T10:54:25;93658.19;;;-0.71
69420;BMP280;71621;52.030;113.516;2024-03-17T10:57:40;93662.19;;;-0.70
69420;BMP280;71621;52.030;113.516;2024-03-17T11:00:45;93659.56;;;-0.70
69420;BMP280;71621;52.030;113.516;2024-03-17T11:03:49;93666.59;;;-0.73
69420;BMP280;71621;52.030;113.516;2024-03-17T11:06:53;93664.81;;;-0.80
69420;BMP280;71621;52.030;113.516;2024-03-17T11:09:56;93665.75;;;-0.85
69420;BMP280;71621;52.030;113.516;2024-03-17T11:13:00;93665.50;;;-0.89
69420;BMP280;71621;52.030;113.516;2024-03-17T11:16:03;93664.66;;;-0.92
69420;BMP280;71621;52.030;113.516;2024-03-17T11:19:06;93666.72;;;-1.00
69420;BMP280;71621;52.030;113.516;2024-03-17T11:22:48;93670.84;;;-1.06
69420;BMP280;71621;52.030;113.516;2024-03-17T11:25:53;93673.63;;;-1.14
69420;BMP280;71621;52.030;113.516;2024-03-17T11:28:56;93681.34;;;-1.16
69420;BMP280;71621;52.030;113.516;2024-03-17T11:32:00;93682.44;;;-1.19
69420;BMP280;71621;52.030;113.516;2024-03-17T11:35:14;93685.06;;;-1.19
69420;BMP280;71621;52.030;113.516;2024-03-17T11:41:54;93688.44;;;-1.36
69420;BMP280;71621;52.030;113.516;2024-03-17T11:44:58;93688.84;;;-1.39
69420;BMP280;71621;52.030;113.516;2024-03-17T11:48:01;93690.50;;;-1.44
69420;BMP280;71621;52.030;113.516;2024-03-17T11:51:04;93689.66;;;-1.47
69420;BMP280;71621;52.030;113.516;2024-03-17T11:54:14;93692.81;;;-1.48
69420;BMP280;71621;52.030;113.516;2024-03-17T11:57:24;93689.25;;;-1.53
69420;BMP280;71621;52.030;113.516;2024-03-17T12:00:27;93691.72;;;-1.55
69420;BMP280;71621;52.030;113.516;2024-03-17T12:03:30;93690.88;;;-1.57
69420;BMP280;71621;52.030;113.516;2024-03-17T12:06:33;93685.34;;;-1.61
69420;BMP280;71621;52.030;113.516;2024-03-17T12:09:35;93694.84;;;-1.66
69420;BMP280;71621;52.030;113.516;2024-03-17T12:12:38;93693.31;;;-1.69
69420;BMP280;71621;52.030;113.516;2024-03-17T12:15:40;93698.28;;;-1.73
69420;BMP280;71621;52.030;113.516;2024-03-17T12:18:42;93695.91;;;-1.79
69420;BMP280;71621;52.030;113.516;2024-03-17T12:21:58;93691.47;;;-1.86
69420;BMP280;71621;52.030;113.516;2024-03-17T12:25:02;93698.41;;;-1.98
69420;BMP280;71621;52.030;113.516;2024-03-17T12:28:15;93688.19;;;-2.04
69420;BMP280;71621;52.030;113.516;2024-03-17T12:31:19;93700.59;;;-2.04
69420;BMP280;71621;52.030;113.516;2024-03-17T12:34:24;93693.13;;;-2.08
69420;BMP280;71621;52.030;113.516;2024-03-17T12:37:28;93698.19;;;-2.10
69420;BMP280;71621;52.030;113.516;2024-03-17T12:40:35;93700.53;;;-2.14
69420;BMP280;71621;52.030;113.516;2024-03-17T12:43:48;93691.16;;;-2.17
69420;BMP280;71621;52.030;113.516;2024-03-17T12:47:02;93693.03;;;-2.27
69420;BMP280;71621;52.030;113.516;2024-03-17T12:50:11;93701.34;;;-2.38
69420;BMP280;71621;52.030;113.516;2024-03-17T12:53:16;93693.16;;;-2.42
69420;BMP280;71621;52.030;113.516;2024-03-17T12:56:25;93697.41;;;-2.47
69420;BMP280;71621;52.030;113.516;2024-03-17T12:59:53;93700.97;;;-2.52
69420;BMP280;71621;52.030;113.516;2024-03-17T13:03:31;93698.59;;;-2.58
69420;BMP280;71621;52.030;113.516;2024-03-17T13:06:34;93694.97;;;-2.62
69420;BMP280;71621;52.030;113.516;2024-03-17T13:09:37;93697.13;;;-2.68
69420;BMP280;71621;52.030;113.516;2024-03-17T13:12:39;93697.19;;;-2.76
69420;BMP280;71621;52.030;113.516;2024-03-17T13:15:43;93694.09;;;-2.82
69420;BMP280;71621;52.030;113.516;2024-03-17T13:18:45;93685.56;;;-2.82
69420;BMP280;71621;52.030;113.516;2024-03-17T13:21:48;93688.72;;;-2.84
69420;BMP280;71621;52.030;113.516;2024-03-17T13:24:50;93687.34;;;-2.85
69420;BMP280;71621;52.030;113.516;2024-03-17T13:27:53;93687.72;;;-2.89
69420;BMP280;71621;52.030;113.516;2024-03-17T13:30:56;93690.25;;;-2.98
69420;BMP280;71621;52.030;113.516;2024-03-17T13:33:58;93687.84;;;-3.04
69420;BMP280;71621;52.030;113.516;2024-03-17T13:37:00;93684.09;;;-3.10
69420;BMP280;71621;52.030;113.516;2024-03-17T13:40:07;93677.31;;;-3.14
69420;BMP280;71621;52.030;113.516;2024-03-17T13:43:11;93680.16;;;-3.19
69420;BMP280;71621;52.030;113.516;2024-03-17T13:46:14;93679.81;;;-3.23
69420;BMP280;71621;52.030;113.516;2024-03-17T13:49:16;93665.34;;;-3.24
69420;BMP280;71621;52.030;113.516;2024-03-17T13:52:19;93671.13;;;-3.26
69420;BMP280;71621;52.030;113.516;2024-03-17T13:55:22;93676.72;;;-3.29
69420;BMP280;71621;52.030;113.516;2024-03-17T13:58:25;93679.03;;;-3.33
69420;BMP280;71621;52.030;113.516;2024-03-17T14:01:26;93679.09;;;-3.41
69420;BMP280;71621;52.030;113.516;2024-03-17T14:04:29;93678.13;;;-3.53
69420;BMP280;71621;52.030;113.516;2024-03-17T14:07:31;93671.44;;;-3.64
69420;BMP280;71621;52.030;113.516;2024-03-17T14:10:33;93672.34;;;-3.77
69420;BMP280;71621;52.030;113.516;2024-03-17T14:13:37;93676.94;;;-3.85
69420;BMP280;71621;52.030;113.516;2024-03-17T14:16:39;93680.81;;;-3.93
69420;BMP280;71621;52.030;113.516;2024-03-17T14:19:42;93672.47;;;-4.00
69420;BMP280;71621;52.030;113.516;2024-03-17T14:22:46;93671.13;;;-4.08
69420;BMP280;71621;52.030;113.516;2024-03-17T14:25:59;93667.91;;;-4.16
69420;BMP280;71621;52.030;113.516;2024-03-17T14:29:04;93671.38;;;-4.21
69420;BMP280;71621;52.030;113.516;2024-03-17T14:32:07;93667.94;;;-4.32
69420;BMP280;71621;52.030;113.516;2024-03-17T14:35:14;93659.81;;;-4.36
69420;BMP280;71621;52.030;113.516;2024-03-17T14:38:17;93663.47;;;-4.46
69420;BMP280;71621;52.030;113.516;2024-03-17T14:41:19;93661.97;;;-4.57
69420;BMP280;71621;52.030;113.516;2024-03-17T14:44:22;93656.22;;;-4.63
69420;BMP280;71621;52.030;113.516;2024-03-17T14:47:25;93658.16;;;-4.71
69420;BMP280;71621;52.030;113.516;2024-03-17T14:50:28;93668.59;;;-4.79
69420;BMP280;71621;52.030;113.516;2024-03-17T14:53:30;93673.13;;;-4.80
69420;BMP280;71621;52.030;113.516;2024-03-17T14:56:33;93664.09;;;-4.86
69420;BMP280;71621;52.030;113.516;2024-03-17T14:59:35;93676.97;;;-5.03
69420;BMP280;71621;52.030;113.516;2024-03-17T15:02:37;93668.28;;;-5.14
69420;BMP280;71621;52.030;113.516;2024-03-17T15:05:39;93668.47;;;-5.19
69420;BMP280;71621;52.030;113.516;2024-03-17T15:08:43;93673.84;;;-5.33
69420;BMP280;71621;52.030;113.516;2024-03-17T15:11:45;93671.41;;;-5.38
69420;BMP280;71621;52.030;113.516;2024-03-17T15:14:50;93667.75;;;-5.35
69420;BMP280;71621;52.030;113.516;2024-03-17T15:17:54;93664.13;;;-5.40
69420;BMP280;71621;52.030;113.516;2024-03-17T15:20:56;93667.28;;;-5.41
69420;BMP280;71621;52.030;113.516;2024-03-17T15:23:58;93656.84;;;-5.41
69420;BMP280;71621;52.030;113.516;2024-03-17T15:27:01;93649.19;;;-5.47
69420;BMP280;71621;52.030;113.516;2024-03-17T15:30:05;93658.22;;;-5.48
69420;BMP280;71621;52.030;113.516;2024-03-17T15:33:08;93666.88;;;-5.53
69420;BMP280;71621;52.030;113.516;2024-03-17T15:36:12;93663.75;;;-5.74
69420;BMP280;71621;52.030;113.516;2024-03-17T15:39:15;93670.47;;;-5.87
69420;BMP280;71621;52.030;113.516;2024-03-17T15:42:17;93665.06;;;-5.96
69420;BMP280;71621;52.030;113.516;2024-03-17T15:45:19;93660.19;;;-6.15
69420;BMP280;71621;52.030;113.516;2024-03-17T15:48:22;93663.81;;;-6.18
69420;BMP280;71621;52.030;113.516;2024-03-17T15:51:25;93665.19;;;-6.17
69420;BMP280;71621;52.030;113.516;2024-03-17T15:54:27;93663.97;;;-6.24
69420;BMP280;71621;52.030;113.516;2024-03-17T15:57:30;93659.78;;;-6.27
69420;BMP280;71621;52.030;113.516;2024-03-17T16:00:33;93662.88;;;-6.28
69420;BMP280;71621;52.030;113.516;2024-03-17T16:03:38;93660.75;;;-6.37
69420;BMP280;71621;52.030;113.516;2024-03-17T16:06:41;93665.63;;;-6.42
69420;BMP280;71621;52.030;113.516;2024-03-17T16:09:44;93668.56;;;-6.37
69420;BMP280;71621;52.030;113.516;2024-03-17T16:12:46;93655.44;;;-6.32
69420;BMP280;71621;52.030;113.516;2024-03-17T16:15:49;93654.91;;;-6.30
69420;BMP280;71621;52.030;113.516;2024-03-17T16:18:52;93655.25;;;-6.26
69420;BMP280;71621;52.030;113.516;2024-03-17T16:21:55;93656.00;;;-6.18
69420;BMP280;71621;52.030;113.516;2024-03-17T16:24:57;93649.78;;;-6.15
69420;BMP280;71621;52.030;113.516;2024-03-17T16:27:59;93651.69;;;-6.08
69420;BMP280;71621;52.030;113.516;2024-03-17T16:31:03;93643.34;;;-6.06
69420;BMP280;71621;52.030;113.516;2024-03-17T16:34:07;93642.69;;;-5.99
69420;BMP280;71621;52.030;113.516;2024-03-17T16:37:10;93644.94;;;-5.96
69420;BMP280;71621;52.030;113.516;2024-03-17T16:40:13;93638.53;;;-5.95
69420;BMP280;71621;52.030;113.516;2024-03-17T16:47:12;93638.88;;;-5.91
69420;BMP280;71621;52.030;113.516;2024-03-17T16:50:16;93630.41;;;-5.91
69420;BMP280;71621;52.030;113.516;2024-03-17T16:53:18;93632.13;;;-5.94
69420;BMP280;71621;52.030;113.516;2024-03-17T16:56:19;93630.03;;;-5.95
69420;BMP280;71621;52.030;113.516;2024-03-17T16:59:22;93627.25;;;-5.97
69420;BMP280;71621;52.030;113.516;2024-03-17T17:02:26;93630.41;;;-5.91
69420;BMP280;71621;52.030;113.516;2024-03-17T17:05:29;93626.59;;;-5.82
69420;BMP280;71621;52.030;113.516;2024-03-17T17:08:31;93621.91;;;-5.76
69420;BMP280;71621;52.030;113.516;2024-03-17T17:11:33;93622.28;;;-5.72
69420;BMP280;71621;52.030;113.516;2024-03-17T17:14:36;93623.69;;;-5.71
69420;BMP280;71621;52.030;113.516;2024-03-17T17:17:45;93613.44;;;-5.69